createdAt,value
2019-05-05T00:01:34.441Z,5.75
2019-05-05T00:04:15.926Z,5.66
2019-05-05T00:06:44.530Z,5.53
2019-05-05T00:09:10.865Z,5.63
2019-05-05T00:11:50.205Z,5.62
2019-05-05T00:14:19.563Z,5.63
2019-05-05T00:16:47.964Z,5.59
2019-05-05T00:19:29.491Z,5.46
2019-05-05T00:21:44.586Z,5.42
2019-05-05T00:24:11.707Z,5.44
2019-05-05T00:26:39.183Z,5.59
2019-05-05T00:29:06.716Z,5.66
2019-05-05T00:31:34.884Z,5.64
2019-05-05T00:34:01.754Z,5.67
2019-05-05T00:36:29.195Z,5.71
2019-05-05T00:38:56.681Z,5.82
2019-05-05T00:41:25.354Z,5.87
2019-05-05T00:43:51.712Z,5.87
2019-05-05T00:46:21.142Z,5.84
2019-05-05T00:48:48.628Z,5.86
2019-05-05T00:51:16.089Z,5.91
2019-05-05T00:53:44.892Z,5.87
2019-05-05T00:56:14.298Z,5.91
2019-05-05T00:58:40.146Z,5.89
2019-05-05T01:01:11.179Z,5.96
2019-05-05T01:03:38.615Z,5.99
2019-05-05T01:06:09.522Z,5.91
2019-05-05T01:11:10.946Z,5.69
2019-05-05T01:13:38.727Z,5.61
2019-05-05T01:16:06.176Z,5.44
2019-05-05T01:18:35.171Z,5.42
2019-05-05T01:21:01.126Z,5.52
2019-05-05T01:23:36.420Z,5.45
2019-05-05T01:26:05.074Z,5.36
2019-05-05T01:28:31.483Z,5.30
2019-05-05T01:30:58.977Z,5.36
2019-05-05T01:33:40.169Z,5.54
2019-05-05T01:36:07.651Z,5.59
2019-05-05T01:38:45.067Z,5.50
2019-05-05T01:41:18.213Z,5.44
2019-05-05T01:43:45.782Z,5.53
2019-05-05T01:46:14.324Z,5.61
2019-05-05T01:48:40.852Z,5.59
2019-05-05T01:51:08.305Z,5.43
2019-05-05T01:53:35.746Z,5.42
2019-05-05T01:56:04.882Z,5.45
2019-05-05T01:58:30.742Z,5.36
2019-05-05T02:00:58.199Z,5.25
2019-05-05T02:03:25.639Z,5.25
2019-05-05T02:05:54.585Z,5.42
2019-05-05T02:08:21.474Z,5.51
2019-05-05T02:10:48.929Z,5.57
2019-05-05T02:13:16.374Z,5.67
2019-05-05T02:15:44.562Z,5.72
2019-05-05T02:18:11.381Z,5.76
2019-05-05T02:20:45.089Z,5.78
2019-05-05T02:23:12.062Z,5.78
2019-05-05T02:25:39.505Z,5.84
2019-05-05T02:28:08.183Z,5.86
2019-05-05T02:30:38.160Z,5.93
2019-05-05T02:33:16.459Z,5.75
2019-05-05T02:35:45.929Z,5.73
2019-05-05T02:38:11.434Z,5.83
2019-05-05T02:40:38.898Z,5.89
2019-05-05T02:43:06.346Z,5.86
2019-05-05T02:45:44.235Z,5.76
2019-05-05T02:48:14.878Z,5.67
2019-05-05T02:50:52.455Z,5.67
2019-05-05T02:53:14.210Z,5.60
2019-05-05T02:55:39.469Z,5.68
2019-05-05T02:58:06.923Z,5.65
2019-05-05T03:03:26.767Z,5.90
2019-05-05T03:05:54.302Z,5.93
2019-05-05T03:08:21.758Z,5.92
2019-05-05T03:10:49.360Z,5.89
2019-05-05T03:13:16.831Z,5.86
2019-05-05T03:15:45.059Z,5.98
2019-05-05T03:18:13.437Z,5.89
2019-05-05T03:20:40.069Z,5.90
2019-05-05T03:23:07.511Z,5.93
2019-05-05T03:25:34.950Z,5.90
2019-05-05T03:28:04.328Z,5.87
2019-05-05T03:30:29.984Z,5.81
2019-05-05T03:32:57.445Z,5.90
2019-05-05T03:35:24.915Z,5.84
2019-05-05T03:37:54.356Z,5.72
2019-05-05T03:40:19.895Z,5.76
2019-05-05T03:42:48.781Z,5.84
2019-05-05T03:45:16.307Z,5.85
2019-05-05T03:47:44.138Z,5.86
2019-05-05T03:50:11.356Z,5.81
2019-05-05T03:52:38.807Z,5.72
2019-05-05T03:55:07.058Z,5.61
2019-05-05T03:57:34.548Z,5.67
2019-05-05T04:00:04.182Z,5.62
2019-05-05T04:02:34.066Z,5.58
2019-05-05T04:05:04.030Z,5.68
2019-05-05T04:07:29.939Z,5.70
2019-05-05T04:09:57.399Z,5.65
2019-05-05T04:12:24.861Z,5.66
2019-05-05T04:14:54.434Z,5.61
2019-05-05T04:17:24.453Z,5.56
2019-05-05T04:19:50.630Z,5.62
2019-05-05T04:22:18.058Z,5.62
2019-05-05T04:24:45.525Z,5.68
2019-05-05T04:27:14.655Z,5.69
2019-05-05T04:29:40.533Z,5.72
2019-05-05T04:32:08.067Z,5.68
2019-05-05T04:34:35.515Z,5.63
2019-05-05T04:37:04.115Z,5.63
2019-05-05T04:39:30.449Z,5.73
2019-05-05T04:41:57.980Z,5.82
2019-05-05T04:44:25.448Z,5.83
2019-05-05T04:46:54.584Z,5.80
2019-05-05T04:49:25.891Z,5.89
2019-05-05T04:54:50.420Z,6.09
2019-05-05T04:57:17.907Z,6.07
2019-05-05T04:59:45.371Z,6.08
2019-05-05T05:05:24.560Z,6.23
2019-05-05T05:07:53.812Z,6.10
2019-05-05T05:10:19.516Z,6.06
2019-05-05T05:12:46.963Z,6.02
2019-05-05T05:15:14.745Z,6.05
2019-05-05T05:17:44.314Z,6.04
2019-05-05T05:20:10.541Z,6.11
2019-05-05T05:22:38.092Z,6.22
2019-05-05T05:25:05.586Z,6.42
2019-05-05T05:27:33.581Z,6.62
2019-05-05T05:30:00.532Z,6.76
2019-05-05T05:32:27.987Z,6.73
2019-05-05T05:34:55.445Z,6.84
2019-05-05T05:37:23.978Z,6.92
2019-05-05T05:40:03.950Z,6.75
2019-05-05T05:42:30.691Z,6.51
2019-05-05T05:47:57.066Z,6.67
2019-05-05T05:50:27.160Z,6.43
2019-05-05T05:52:54.612Z,6.42
2019-05-05T05:55:23.775Z,6.49
2019-05-05T05:57:49.679Z,6.51
2019-05-05T06:00:17.254Z,6.58
2019-05-05T06:02:44.782Z,6.69
2019-05-05T06:05:12.238Z,6.79
2019-05-05T06:07:39.761Z,6.94
2019-05-05T06:10:20.570Z,7.05
2019-05-05T06:12:34.777Z,7.09
2019-05-05T06:15:03.485Z,7.16
2019-05-05T06:17:29.265Z,7.35
2019-05-05T06:19:56.706Z,7.56
2019-05-05T06:22:29.392Z,7.67
2019-05-05T06:24:53.954Z,7.71
2019-05-05T06:27:19.407Z,7.81
2019-05-05T06:29:46.850Z,7.96
2019-05-05T06:32:14.730Z,7.88
2019-05-05T06:34:41.804Z,7.78
2019-05-05T06:37:09.284Z,7.83
2019-05-05T06:39:36.733Z,7.81
2019-05-05T06:42:20.040Z,7.83
2019-05-05T06:44:48.340Z,7.86
2019-05-05T06:47:15.811Z,7.98
2019-05-05T06:49:43.870Z,8.05
2019-05-05T06:52:10.788Z,8.07
2019-05-05T06:54:38.539Z,8.26
2019-05-05T06:57:06.005Z,8.30
2019-05-05T06:59:35.008Z,8.35
2019-05-05T07:02:01.062Z,8.47
2019-05-05T07:04:28.063Z,8.72
2019-05-05T07:06:57.188Z,8.71
2019-05-05T07:09:24.474Z,8.55
2019-05-05T07:11:51.021Z,8.48
2019-05-05T07:14:18.507Z,8.52
2019-05-05T07:16:46.022Z,8.47
2019-05-05T07:19:14.672Z,8.52
2019-05-05T07:21:41.112Z,8.70
2019-05-05T07:24:08.593Z,8.80
2019-05-05T07:26:36.036Z,8.92
2019-05-05T07:29:04.593Z,8.94
2019-05-05T07:31:31.232Z,9.17
2019-05-05T07:33:58.790Z,9.22
2019-05-05T07:36:33.899Z,9.19
2019-05-05T07:38:59.441Z,9.36
2019-05-05T07:41:26.450Z,9.57
2019-05-05T07:43:54.272Z,9.59
2019-05-05T07:46:21.473Z,9.67
2019-05-05T07:48:48.923Z,9.60
2019-05-05T07:51:16.567Z,9.55
2019-05-05T07:53:44.448Z,9.59
2019-05-05T07:56:11.637Z,9.45
2019-05-05T07:58:39.121Z,9.44
2019-05-05T08:01:06.619Z,9.39
2019-05-05T08:03:34.110Z,9.46
2019-05-05T08:06:03.805Z,9.50
2019-05-05T08:08:29.067Z,9.52
2019-05-05T08:10:56.531Z,9.31
2019-05-05T08:13:24.392Z,9.10
2019-05-05T08:15:59.100Z,9.14
2019-05-05T08:18:21.895Z,9.15
2019-05-05T08:20:49.882Z,9.30
2019-05-05T08:23:30.239Z,9.37
2019-05-05T08:25:48.486Z,9.34
2019-05-05T08:28:18.408Z,9.36
2019-05-05T08:30:47.071Z,9.48
2019-05-05T08:33:14.507Z,9.60
2019-05-05T08:35:41.964Z,9.50
2019-05-05T08:38:09.409Z,9.75
2019-05-05T08:40:36.866Z,9.96
2019-05-05T08:43:04.565Z,9.93
2019-05-05T08:45:31.438Z,10.03
2019-05-05T08:47:58.901Z,9.99
2019-05-05T08:50:27.110Z,9.88
2019-05-05T08:52:53.876Z,9.93
2019-05-05T08:55:21.456Z,10.02
2019-05-05T08:57:49.119Z,10.13
2019-05-05T09:00:16.640Z,10.41
2019-05-05T09:02:44.138Z,10.46
2019-05-05T09:05:11.624Z,10.42
2019-05-05T09:07:39.076Z,10.35
2019-05-05T09:10:06.606Z,10.08
2019-05-05T09:12:34.059Z,9.67
2019-05-05T09:15:01.519Z,9.38
2019-05-05T09:17:29.430Z,9.38
2019-05-05T09:19:57.061Z,9.60
2019-05-05T09:22:24.681Z,10.11
2019-05-05T09:27:45.773Z,10.58
2019-05-05T09:30:14.260Z,10.42
2019-05-05T09:32:40.970Z,10.21
2019-05-05T09:35:08.481Z,10.37
2019-05-05T09:37:35.962Z,10.59
2019-05-05T09:40:04.487Z,10.68
2019-05-05T09:42:31.086Z,10.68
2019-05-05T09:44:58.602Z,10.62
2019-05-05T09:47:26.063Z,10.58
2019-05-05T09:49:54.979Z,10.92
2019-05-05T09:52:21.011Z,11.11
2019-05-05T09:54:48.453Z,10.96
2019-05-05T09:57:15.941Z,10.69
2019-05-05T09:59:44.175Z,10.63
2019-05-05T10:02:11.015Z,10.52
2019-05-05T10:04:38.503Z,10.56
2019-05-05T10:07:05.959Z,10.89
2019-05-05T10:09:34.510Z,11.11
2019-05-05T10:12:01.179Z,11.08
2019-05-05T10:14:28.764Z,11.13
2019-05-05T10:16:56.204Z,10.98
2019-05-05T10:19:24.329Z,10.53
2019-05-05T10:21:51.179Z,10.95
2019-05-05T10:27:10.835Z,11.64
2019-05-05T10:29:38.309Z,11.53
2019-05-05T10:32:05.878Z,11.80
2019-05-05T10:34:33.555Z,12.03
2019-05-05T10:37:00.882Z,11.82
2019-05-05T10:39:30.880Z,11.87
2019-05-05T10:41:58.322Z,11.58
2019-05-05T10:44:25.829Z,11.63
2019-05-05T10:46:53.942Z,11.72
2019-05-05T10:49:20.790Z,11.67
2019-05-05T10:51:48.235Z,11.48
2019-05-05T10:54:15.682Z,11.31
2019-05-05T10:56:43.147Z,11.12
2019-05-05T10:59:10.623Z,11.06
2019-05-05T11:01:38.084Z,11.02
2019-05-05T11:04:05.085Z,11.24
2019-05-05T11:06:32.215Z,11.49
2019-05-05T11:08:59.382Z,11.55
2019-05-05T11:11:26.845Z,11.70
2019-05-05T11:13:54.372Z,11.80
2019-05-05T11:16:21.782Z,11.53
2019-05-05T11:18:49.260Z,11.24
2019-05-05T11:21:16.715Z,11.07
2019-05-05T11:23:44.816Z,11.10
2019-05-05T11:26:14.081Z,11.00
2019-05-05T11:28:39.459Z,10.98
2019-05-05T11:31:06.946Z,11.08
2019-05-05T11:33:37.022Z,11.10
2019-05-05T11:36:07.551Z,11.23
2019-05-05T11:38:35.039Z,11.49
2019-05-05T11:41:04.781Z,11.70
2019-05-05T11:43:30.111Z,11.62
2019-05-05T11:45:57.688Z,11.61
2019-05-05T11:48:25.138Z,11.77
2019-05-05T11:50:54.022Z,11.96
2019-05-05T11:53:19.177Z,12.02
2019-05-05T11:55:46.180Z,12.01
2019-05-05T11:58:14.396Z,12.14
2019-05-05T12:00:40.204Z,12.47
2019-05-05T12:03:07.212Z,12.43
2019-05-05T12:05:34.217Z,11.77
2019-05-05T12:08:01.242Z,11.72
2019-05-05T12:10:43.938Z,11.91
2019-05-05T12:13:11.272Z,12.22
2019-05-05T12:15:38.356Z,12.50
2019-05-05T12:18:05.373Z,12.92
2019-05-05T12:20:33.707Z,13.15
2019-05-05T12:23:00.316Z,13.88
2019-05-05T12:25:32.962Z,13.99
2019-05-05T12:28:01.434Z,13.84
2019-05-05T12:30:28.430Z,13.72
2019-05-05T12:32:55.493Z,13.57
2019-05-05T12:35:23.562Z,13.49
2019-05-05T12:37:50.438Z,13.05
2019-05-05T12:40:17.513Z,12.77
2019-05-05T12:42:45.138Z,13.03
2019-05-05T12:45:13.778Z,13.48
2019-05-05T12:47:42.116Z,14.08
2019-05-05T12:50:09.246Z,14.37
2019-05-05T12:52:36.324Z,14.17
2019-05-05T12:55:05.105Z,14.13
2019-05-05T12:57:30.584Z,14.09
2019-05-05T12:59:57.619Z,13.63
2019-05-05T13:02:24.779Z,13.95
2019-05-05T13:04:53.464Z,14.16
2019-05-05T13:07:19.115Z,14.49
2019-05-05T13:09:46.571Z,15.27
2019-05-05T13:12:15.137Z,15.55
2019-05-05T13:14:43.888Z,15.27
2019-05-05T13:17:09.636Z,15.36
2019-05-05T13:22:34.984Z,15.58
2019-05-05T13:27:59.932Z,15.33
2019-05-05T13:30:26.960Z,15.38
2019-05-05T13:32:54.540Z,15.14
2019-05-05T13:35:23.434Z,14.94
2019-05-05T13:37:48.558Z,14.94
2019-05-05T13:40:15.559Z,14.25
2019-05-05T13:42:43.993Z,14.55
2019-05-05T13:45:14.401Z,14.99
2019-05-05T13:47:39.989Z,14.88
2019-05-05T13:50:08.451Z,15.25
2019-05-05T13:52:36.017Z,15.15
2019-05-05T13:55:03.510Z,15.19
2019-05-05T13:57:30.969Z,14.86
2019-05-05T13:59:58.420Z,14.73
2019-05-05T14:02:25.877Z,15.08
2019-05-05T14:04:54.190Z,14.46
2019-05-05T14:07:20.975Z,14.19
2019-05-05T14:09:48.439Z,14.38
2019-05-05T14:12:15.918Z,14.40
2019-05-05T14:14:44.074Z,13.93
2019-05-05T14:17:10.854Z,13.33
2019-05-05T14:19:38.443Z,12.85
2019-05-05T14:22:05.980Z,12.71
2019-05-05T14:24:35.988Z,12.62
2019-05-05T14:27:04.510Z,12.76
2019-05-05T14:29:34.626Z,12.53
2019-05-05T14:32:01.703Z,12.65
2019-05-05T14:34:29.164Z,12.09
2019-05-05T14:37:02.043Z,11.76
2019-05-05T14:39:29.597Z,12.34
2019-05-05T14:41:57.229Z,13.00
2019-05-05T14:44:24.772Z,13.26
2019-05-05T14:46:52.240Z,13.73
2019-05-05T14:49:19.689Z,13.63
2019-05-05T14:51:47.165Z,13.46
2019-05-05T14:54:14.990Z,13.29
2019-05-05T14:56:44.037Z,12.97
2019-05-05T14:59:09.763Z,12.81
2019-05-05T15:01:37.220Z,12.85
2019-05-05T15:04:04.785Z,12.88
2019-05-05T15:06:34.446Z,12.56
2019-05-05T15:09:03.775Z,12.61
2019-05-05T15:14:25.935Z,12.52
2019-05-05T15:16:54.317Z,12.42
2019-05-05T15:19:20.980Z,12.24
2019-05-05T15:21:48.949Z,12.13
2019-05-05T15:24:16.174Z,12.31
2019-05-05T15:26:51.902Z,12.13
2019-05-05T15:29:11.118Z,12.07
2019-05-05T15:31:38.566Z,12.19
2019-05-05T15:34:06.082Z,12.25
2019-05-05T15:36:34.638Z,12.43
2019-05-05T15:39:02.087Z,12.37
2019-05-05T15:41:29.586Z,12.43
2019-05-05T15:43:57.215Z,12.49
2019-05-05T15:46:24.787Z,12.95
2019-05-05T15:48:54.426Z,13.50
2019-05-05T15:51:19.788Z,14.09
2019-05-05T15:53:47.226Z,14.25
2019-05-05T15:56:14.792Z,13.95
2019-05-05T15:58:43.520Z,13.78
2019-05-05T16:01:10.099Z,14.48
2019-05-05T16:03:37.556Z,14.61
2019-05-05T16:06:05.045Z,14.48
2019-05-05T16:08:34.006Z,14.15
2019-05-05T16:10:59.997Z,13.97
2019-05-05T16:13:27.470Z,13.89
2019-05-05T16:15:55.780Z,13.90
2019-05-05T16:18:23.871Z,13.79
2019-05-05T16:20:51.357Z,13.81
2019-05-05T16:23:35.630Z,13.95
2019-05-05T16:26:01.147Z,13.97
2019-05-05T16:28:28.629Z,13.78
2019-05-05T16:30:56.344Z,13.55
2019-05-05T16:33:24.195Z,13.18
2019-05-05T16:35:51.203Z,12.82
2019-05-05T16:38:18.667Z,12.59
2019-05-05T16:40:46.117Z,12.44
2019-05-05T16:43:14.120Z,12.36
2019-05-05T16:45:41.183Z,12.36
2019-05-05T16:48:08.691Z,12.44
2019-05-05T16:50:36.833Z,12.54
2019-05-05T16:53:05.130Z,12.37
2019-05-05T16:55:38.151Z,12.12
2019-05-05T16:58:06.746Z,12.00
2019-05-05T17:00:34.516Z,12.04
2019-05-05T17:03:00.580Z,12.14
2019-05-05T17:05:28.014Z,12.24
2019-05-05T17:07:56.413Z,12.20
2019-05-05T17:10:24.409Z,12.14
2019-05-05T17:12:50.627Z,12.15
2019-05-05T17:15:18.869Z,12.02
2019-05-05T17:17:46.347Z,12.00
2019-05-05T17:20:13.956Z,11.97
2019-05-05T17:22:48.485Z,11.74
2019-05-05T17:25:15.980Z,11.31
2019-05-05T17:27:48.521Z,11.16
2019-05-05T17:30:11.371Z,11.21
2019-05-05T17:32:38.984Z,11.32
2019-05-05T17:35:06.474Z,11.35
2019-05-05T17:37:33.989Z,11.34
2019-05-05T17:40:08.524Z,11.27
2019-05-05T17:42:40.759Z,11.27
2019-05-05T17:45:14.092Z,11.21
2019-05-05T17:47:40.009Z,11.14
2019-05-05T17:53:14.895Z,11.30
2019-05-05T17:55:41.013Z,11.20
2019-05-05T17:58:10.428Z,11.10
2019-05-05T18:00:37.964Z,11.02
2019-05-05T18:03:05.570Z,10.74
2019-05-05T18:05:38.627Z,10.37
2019-05-05T18:08:06.127Z,10.07
2019-05-05T18:10:39.618Z,9.88
2019-05-05T18:13:12.046Z,9.82
2019-05-05T18:15:48.014Z,9.77
2019-05-05T18:18:13.916Z,9.62
2019-05-05T18:20:40.290Z,9.44
2019-05-05T18:23:07.819Z,9.37
2019-05-05T18:25:35.259Z,9.26
2019-05-05T18:28:15.364Z,9.18
2019-05-05T18:30:30.228Z,9.16
2019-05-05T18:32:57.750Z,9.08
2019-05-05T18:35:25.561Z,9.00
2019-05-05T18:37:54.423Z,8.91
2019-05-05T18:40:20.577Z,8.84
2019-05-05T18:42:48.139Z,8.80
2019-05-05T18:45:16.190Z,8.69
2019-05-05T18:47:43.659Z,8.62
2019-05-05T18:50:11.135Z,8.61
2019-05-05T18:52:38.580Z,8.60
2019-05-05T18:55:06.073Z,8.69
2019-05-05T18:57:34.188Z,8.77
2019-05-05T19:00:01.164Z,8.81
2019-05-05T19:02:31.211Z,8.90
2019-05-05T19:05:04.770Z,8.92
2019-05-05T19:07:36.118Z,8.85
2019-05-05T19:10:04.000Z,8.81
2019-05-05T19:12:31.114Z,8.83
2019-05-05T19:14:58.595Z,8.84
2019-05-05T19:17:28.573Z,8.85
2019-05-05T19:19:54.914Z,8.86
2019-05-05T19:22:22.070Z,8.82
2019-05-05T19:24:49.522Z,8.81
2019-05-05T19:27:17.052Z,8.78
2019-05-05T19:29:46.327Z,8.76
2019-05-05T19:32:12.206Z,8.77
2019-05-05T19:34:39.662Z,8.79
2019-05-05T19:37:07.098Z,8.72
2019-05-05T19:39:34.580Z,8.70
2019-05-05T19:42:02.050Z,8.63
2019-05-05T19:44:29.669Z,8.61
2019-05-05T19:47:05.673Z,8.59
2019-05-05T19:49:30.119Z,8.55
2019-05-05T19:51:57.575Z,8.53
2019-05-05T19:54:25.135Z,8.54
2019-05-05T19:56:54.263Z,8.53
2019-05-05T19:59:20.482Z,8.52
2019-05-05T20:01:48.069Z,8.56
2019-05-05T20:04:15.531Z,8.51
2019-05-05T20:06:44.199Z,8.38
2019-05-05T20:09:10.635Z,8.26
2019-05-05T20:11:38.105Z,8.21
2019-05-05T20:14:09.985Z,8.24
2019-05-05T20:16:47.674Z,8.36
2019-05-05T20:19:15.122Z,8.28
2019-05-05T20:21:43.913Z,8.15
2019-05-05T20:24:10.189Z,8.05
2019-05-05T20:26:37.705Z,8.01
2019-05-05T20:29:13.898Z,7.98
2019-05-05T20:31:34.591Z,7.97
2019-05-05T20:34:00.514Z,7.98
2019-05-05T20:36:27.963Z,7.94
2019-05-05T20:38:55.818Z,7.95
2019-05-05T20:41:24.908Z,7.97
2019-05-05T20:43:50.787Z,7.97
2019-05-05T20:46:18.252Z,7.96
2019-05-05T20:48:45.711Z,8.02
2019-05-05T20:51:13.792Z,7.95
2019-05-05T20:53:40.755Z,7.91
2019-05-05T20:56:08.215Z,7.93
2019-05-05T20:58:35.810Z,7.96
2019-05-05T21:01:04.517Z,8.00
2019-05-05T21:03:30.755Z,8.03
2019-05-05T21:05:58.210Z,8.01
2019-05-05T21:08:25.903Z,7.97
2019-05-05T21:10:53.772Z,7.97
2019-05-05T21:13:20.944Z,7.96
2019-05-05T21:15:48.501Z,7.93
2019-05-05T21:18:15.994Z,7.92
2019-05-05T21:20:43.485Z,7.91
2019-05-05T21:23:15.692Z,7.93
2019-05-05T21:28:35.484Z,8.24
2019-05-05T21:31:04.832Z,8.14
2019-05-05T21:36:05.094Z,7.91
2019-05-05T21:38:32.617Z,7.89
2019-05-05T21:41:01.338Z,7.86
2019-05-05T21:43:28.995Z,7.81
2019-05-05T21:45:57.134Z,7.81
2019-05-05T21:48:24.836Z,7.80
2019-05-05T21:50:54.021Z,7.70
2019-05-05T21:53:25.631Z,7.56
2019-05-05T21:55:55.220Z,7.51
2019-05-05T21:58:26.637Z,7.48
2019-05-05T22:00:56.449Z,7.50
2019-05-05T22:03:30.933Z,7.45
2019-05-05T22:06:03.542Z,7.42
2019-05-05T22:08:28.963Z,7.34
2019-05-05T22:10:56.414Z,7.30
2019-05-05T22:13:23.931Z,7.34
2019-05-05T22:15:51.391Z,7.34
2019-05-05T22:18:18.842Z,7.35
2019-05-05T22:20:46.306Z,7.41
2019-05-05T22:23:14.511Z,7.45
2019-05-05T22:25:43.668Z,7.50
2019-05-05T22:28:09.065Z,7.50
2019-05-05T22:30:36.512Z,7.51
2019-05-05T22:33:05.974Z,7.47
2019-05-05T22:35:31.520Z,7.44
2019-05-05T22:37:58.989Z,7.44
2019-05-05T22:40:26.562Z,7.46
2019-05-05T22:42:54.687Z,7.50
2019-05-05T22:45:23.610Z,7.54
2019-05-05T22:47:49.154Z,7.50
2019-05-05T22:50:16.609Z,7.44
2019-05-05T22:52:44.705Z,7.47
2019-05-05T22:55:13.805Z,7.44
2019-05-05T22:57:39.244Z,7.40
2019-05-05T23:00:06.745Z,7.36
2019-05-05T23:02:35.077Z,7.35
2019-05-05T23:05:04.087Z,7.31
2019-05-05T23:07:30.626Z,7.29
2019-05-05T23:09:58.101Z,7.25
2019-05-05T23:12:25.604Z,7.22
2019-05-05T23:14:54.548Z,7.15
2019-05-05T23:17:26.441Z,7.11
2019-05-05T23:19:58.044Z,7.04
2019-05-05T23:25:18.590Z,7.22
2019-05-05T23:27:47.526Z,7.07
2019-05-05T23:30:15.987Z,6.95
2019-05-05T23:32:43.867Z,6.91
2019-05-05T23:35:10.003Z,6.83
2019-05-05T23:37:37.539Z,6.80
2019-05-05T23:40:04.986Z,6.81
2019-05-05T23:42:33.699Z,6.87
2019-05-05T23:45:00.095Z,6.87
2019-05-05T23:47:27.541Z,6.89
2019-05-05T23:49:55.005Z,6.87
2019-05-05T23:52:24.016Z,6.86
2019-05-05T23:54:50.153Z,6.80
2019-05-05T23:57:17.810Z,6.82
2019-05-05T23:59:45.245Z,6.89
